Time;durP1;ratioP1;P1;durP2;ratioP2;P2;SDS_P1;SDS_P2;PMS_P1;PMS_P2;Temp;Humidity;BMP_temperature;BMP_pressure;BME280_temperature;BME280_humidity;BME280_pressure;Samples;Min_cycle;Max_cycle;Signal;HPM_P1;HPM_P2
2023/06/30 00:00:59;;;;;;;3.70;3.40;;;;;;;16.28;100.00;98614.52;108491;1254;73453;-62
2023/06/30 00:03:27;;;;;;;;;;;;;;;16.27;100.00;98614.04;108431;1253;61876;-62
2023/06/30 00:05:55;;;;;;;8.70;3.30;;;;;;;16.19;100.00;98610.99;108501;1251;59431;-63
2023/06/30 00:08:23;;;;;;;;;;;;;;;16.18;100.00;98608.25;108478;1251;72849;-62
2023/06/30 00:10:50;;;;;;;;;;;;;;;16.22;100.00;98605.13;108563;1251;69129;-62
2023/06/30 00:13:18;;;;;;;;;;;;;;;16.22;100.00;98604.73;108518;1252;72408;-62
2023/06/30 00:15:46;;;;;;;3.60;3.30;;;;;;;16.21;100.00;98607.85;108459;1253;61407;-62
2023/06/30 00:18:14;;;;;;;4.30;3.90;;;;;;;16.23;100.00;98604.81;108499;1251;59689;-62
2023/06/30 00:20:41;;;;;;;4.30;3.80;;;;;;;16.21;100.00;98597.61;108493;1251;73038;-63
2023/06/30 00:23:11;;;;;;;5.30;3.60;;;;;;;16.21;100.00;98594.92;108394;1251;70012;-64
2023/06/30 00:25:38;;;;;;;5.90;3.60;;;;;;;16.16;100.00;98596.54;108302;1251;72383;-63
2023/06/30 00:28:06;;;;;;;5.60;3.60;;;;;;;16.16;100.00;98594.06;108339;1251;62593;-64
2023/06/30 00:30:34;;;;;;;;;;;;;;;16.18;100.00;98595.04;108441;1251;60771;-64
2023/06/30 00:33:01;;;;;;;4.30;3.90;;;;;;;16.19;100.00;98588.15;108342;1251;72065;-63
2023/06/30 00:35:29;;;;;;;4.30;3.40;;;;;;;16.15;100.00;98593.84;108334;1251;68884;-63
2023/06/30 00:37:57;;;;;;;8.10;4.00;;;;;;;16.23;100.00;98592.48;108469;1251;72618;-62
2023/06/30 00:40:25;;;;;;;4.80;3.70;;;;;;;16.25;100.00;98586.23;108514;1251;61526;-64
2023/06/30 00:42:53;;;;;;;3.80;3.40;;;;;;;16.21;100.00;98590.17;108537;1251;60744;-63
2023/06/30 00:45:20;;;;;;;6.80;3.60;;;;;;;16.18;100.00;98587.03;108485;1251;73707;-65
2023/06/30 00:47:48;;;;;;;4.30;3.80;;;;;;;16.15;100.00;98593.44;108081;1252;70131;-62
2023/06/30 00:50:16;;;;;;;6.70;3.90;;;;;;;16.19;100.00;98589.96;108327;1251;71471;-63
2023/06/30 00:52:45;;;;;;;5.20;3.50;;;;;;;16.22;100.00;98594.66;108442;1253;61351;-62
2023/06/30 00:55:12;;;;;;;3.70;3.40;;;;;;;16.27;100.00;98593.35;108516;1251;60685;-64
2023/06/30 00:57:41;;;;;;;4.30;3.40;;;;;;;16.28;100.00;98595.92;108350;1256;73782;-62
2023/06/30 01:00:11;;;;;;;5.80;3.40;;;;;;;16.27;100.00;98596.21;108321;1251;68192;-64
2023/06/30 01:02:45;;;;;;;4.20;3.80;;;;;;;16.31;100.00;98594.98;108513;1251;73324;-63
2023/06/30 01:05:18;;;;;;;4.50;3.60;;;;;;;16.32;100.00;98598.56;108100;1254;62856;-63
2023/06/30 01:07:50;;;;;;;4.00;3.70;;;;;;;16.22;100.00;98608.81;108119;1252;59697;-63
2023/06/30 01:10:21;;;;;;;4.00;3.50;;;;;;;16.17;100.00;98608.02;108355;1251;73531;-63
2023/06/30 01:12:48;;;;;;;4.40;4.00;;;;;;;16.15;100.00;98605.48;108594;1251;70095;-63
2023/06/30 01:15:16;;;;;;;4.30;3.50;;;;;;;16.18;100.00;98608.11;108395;1251;74988;-63
2023/06/30 01:17:46;;;;;;;8.10;3.80;;;;;;;16.17;100.00;98603.87;108266;1254;61475;-63
2023/06/30 01:20:14;;;;;;;5.70;4.10;;;;;;;16.21;100.00;98606.77;108400;1251;59689;-64
2023/06/30 01:22:56;;;;;;;5.30;3.60;;;;;;;16.23;100.00;98604.08;107907;1251;74036;-63
2023/06/30 01:25:26;;;;;;;7.40;3.80;;;;;;;16.25;100.00;98603.61;108202;1251;69648;-62
2023/06/30 01:27:54;;;;;;;5.70;3.40;;;;;;;16.26;100.00;98598.02;108182;1254;72890;-64
2023/06/30 01:30:22;;;;;;;3.60;3.30;;;;;;;16.28;100.00;98599.42;108203;1251;61875;-63
2023/06/30 01:32:54;;;;;;;5.30;3.70;;;;;;;16.29;100.00;98601.33;108253;1251;59870;-62
2023/06/30 01:35:22;;;;;;;5.00;3.70;;;;;;;16.24;100.00;98605.26;108220;1251;73616;-63
2023/06/30 01:37:52;;;;;;;4.90;3.50;;;;;;;16.27;100.00;98611.36;108254;1251;70401;-62
2023/06/30 01:40:20;;;;;;;3.60;3.30;;;;;;;16.27;100.00;98610.02;108404;1251;72178;-62
2023/06/30 01:42:52;;;;;;;4.70;3.60;;;;;;;16.22;100.00;98606.86;108083;1256;61385;-62
2023/06/30 01:45:22;;;;;;;3.60;3.30;;;;;;;16.22;100.00;98603.64;108206;1251;60675;-62
2023/06/30 01:47:50;;;;;;;4.80;3.40;;;;;;;16.25;100.00;98602.76;108223;1251;73566;-63
2023/06/30 01:50:18;;;;;;;;;;;;;;;16.25;100.00;98604.81;108226;1251;69062;-62
2023/06/30 01:52:46;;;;;;;4.20;3.80;;;;;;;16.23;100.00;98606.42;108360;1251;72377;-64
2023/06/30 01:55:13;;;;;;;5.50;3.50;;;;;;;16.23;100.00;98606.06;108213;1251;61453;-63
2023/06/30 01:57:41;;;;;;;6.00;3.30;;;;;;;16.23;100.00;98605.52;108397;1251;62070;-64
2023/06/30 02:00:09;;;;;;;6.80;4.00;;;;;;;16.27;100.00;98610.19;108307;1254;72702;-65
2023/06/30 02:02:40;;;;;;;4.00;3.60;;;;;;;16.23;100.00;98614.02;108459;1251;68576;-62
2023/06/30 02:05:08;;;;;;;4.00;3.70;;;;;;;16.23;100.00;98604.48;108522;1251;72308;-63
2023/06/30 02:07:36;;;;;;;4.10;3.60;;;;;;;16.30;100.00;98607.13;108458;1252;61417;-63
2023/06/30 02:10:07;;;;;;;4.50;3.80;;;;;;;16.32;100.00;98607.92;108497;1254;59801;-60
2023/06/30 02:12:35;;;;;;;4.00;3.60;;;;;;;16.32;100.00;98610.45;108337;1251;73943;-63
2023/06/30 02:15:04;;;;;;;3.90;3.50;;;;;;;16.37;100.00;98601.70;108386;1251;69148;-63
2023/06/30 02:17:32;;;;;;;4.70;4.20;;;;;;;16.41;100.00;98603.83;108497;1253;72416;-62
2023/06/30 02:20:00;;;;;;;4.40;3.90;;;;;;;16.49;100.00;98606.04;108447;1252;60652;-62
2023/06/30 02:22:28;;;;;;;5.20;3.80;;;;;;;16.52;100.00;98605.26;108449;1251;58999;-62
2023/06/30 02:24:56;;;;;;;4.50;3.90;;;;;;;16.54;100.00;98602.41;108248;1251;73689;-62
2023/06/30 02:27:24;;;;;;;4.90;3.50;;;;;;;16.55;100.00;98599.19;108380;1251;70419;-63
2023/06/30 02:29:51;;;;;;;4.10;3.80;;;;;;;16.55;100.00;98603.40;108462;1251;72348;-63
2023/06/30 02:32:19;;;;;;;3.90;3.60;;;;;;;16.60;100.00;98604.61;108297;1253;60496;-63
2023/06/30 02:34:47;;;;;;;4.20;3.80;;;;;;;16.60;100.00;98607.59;108186;1254;59816;-63
2023/06/30 02:37:14;;;;;;;4.00;3.70;;;;;;;16.62;100.00;98604.73;108403;1254;72624;-63
2023/06/30 02:39:42;;;;;;;8.50;3.90;;;;;;;16.67;100.00;98604.88;108363;1254;70073;-62
2023/06/30 02:42:10;;;;;;;4.70;3.70;;;;;;;16.71;100.00;98604.90;108261;1254;72240;-61
2023/06/30 02:44:37;;;;;;;5.50;4.00;;;;;;;16.69;100.00;98611.44;108282;1254;61369;-62
2023/06/30 02:47:06;;;;;;;4.40;4.00;;;;;;;16.76;100.00;98606.21;108395;1253;59804;-62
2023/06/30 02:49:34;;;;;;;5.40;4.70;;;;;;;16.79;100.00;98603.38;108178;1254;72512;-62
2023/06/30 02:52:02;;;;;;;4.00;3.70;;;;;;;16.79;100.00;98601.91;108132;1254;69043;-62
2023/06/30 02:54:30;;;;;;;3.70;3.40;;;;;;;16.78;100.00;98603.08;108251;1254;72901;-62
2023/06/30 02:56:57;;;;;;;5.50;4.00;;;;;;;16.81;100.00;98598.38;108198;1253;61402;-62
2023/06/30 02:59:25;;;;;;;5.90;3.80;;;;;;;16.81;100.00;98604.27;108189;1254;59811;-64
2023/06/30 03:01:54;;;;;;;4.30;3.90;;;;;;;16.82;100.00;98606.46;108147;1254;73794;-62
2023/06/30 03:04:22;;;;;;;4.90;3.60;;;;;;;16.87;100.00;98602.14;108318;1253;69624;-62
2023/06/30 03:06:50;;;;;;;3.90;3.60;;;;;;;16.91;100.00;98602.33;108152;1256;72740;-62
2023/06/30 03:09:17;;;;;;;7.10;3.90;;;;;;;16.88;100.00;98600.52;108027;1253;61457;-61
2023/06/30 03:11:46;;;;;;;4.40;3.80;;;;;;;16.86;100.00;98604.73;108112;1254;60650;-62
2023/06/30 03:14:15;;;;;;;7.90;4.30;;;;;;;16.81;100.00;98605.11;108114;1254;74088;-63
2023/06/30 03:16:43;;;;;;;4.60;4.00;;;;;;;16.89;100.00;98603.90;108161;1253;69411;-61
2023/06/30 03:19:11;;;;;;;5.30;4.80;;;;;;;16.86;100.00;98606.65;108038;1254;72871;-62
2023/06/30 03:21:39;;;;;;;5.60;4.30;;;;;;;16.94;100.00;98605.23;108219;1254;60341;-62
2023/06/30 03:24:07;;;;;;;4.10;3.80;;;;;;;16.94;100.00;98601.77;108158;1253;59777;-65
2023/06/30 03:26:35;;;;;;;4.90;3.70;;;;;;;16.95;100.00;98605.20;108233;1254;72684;-62
2023/06/30 03:29:03;;;;;;;5.60;4.00;;;;;;;17.01;100.00;98612.30;107975;1254;69753;-61
2023/06/30 03:31:31;;;;;;;4.40;4.00;;;;;;;17.00;100.00;98608.63;108309;1253;72434;-63
2023/06/30 03:33:59;;;;;;;4.20;3.80;;;;;;;17.13;100.00;98607.70;108411;1251;61883;-63
2023/06/30 03:36:27;;;;;;;4.40;4.00;;;;;;;17.18;100.00;98604.84;108556;1251;59763;-63
2023/06/30 03:38:55;;;;;;;4.40;4.00;;;;;;;17.24;100.00;98596.83;108535;1251;73673;-62
2023/06/30 03:41:23;;;;;;;6.20;3.90;;;;;;;17.29;100.00;98599.40;108382;1251;69622;-63
2023/06/30 03:43:50;;;;;;;5.20;4.50;;;;;;;17.28;100.00;98601.97;108542;1251;72824;-66
2023/06/30 03:46:18;;;;;;;;;;;;;;;17.39;100.00;98595.58;108254;1252;61466;-65
2023/06/30 03:48:46;;;;;;;4.60;4.30;;;;;;;17.40;100.00;98591.04;108358;1254;59357;-64
2023/06/30 03:51:14;;;;;;;4.60;4.20;;;;;;;17.47;100.00;98601.04;108031;1251;73487;-65
2023/06/30 03:53:46;;;;;;;4.70;3.90;;;;;;;17.53;100.00;98606.23;108315;1251;69289;-62
2023/06/30 03:56:14;;;;;;;4.50;4.20;;;;;;;17.58;100.00;98608.23;108451;1251;72419;-65
2023/06/30 03:58:42;;;;;;;7.30;4.00;;;;;;;17.47;100.00;98605.86;108479;1253;63942;-62
2023/06/30 04:01:11;;;;;;;4.40;4.00;;;;;;;17.53;100.00;98598.80;108437;1252;60077;-64
2023/06/30 04:03:39;;;;;;;5.20;4.40;;;;;;;17.53;100.00;98601.61;108629;1251;73566;-64
2023/06/30 04:06:06;;;;;;;4.60;4.20;;;;;;;17.42;100.00;98602.39;108579;1251;69110;-62
2023/06/30 04:08:35;;;;;;;4.40;4.10;;;;;;;17.50;100.00;98602.23;108574;1251;72349;-62
2023/06/30 04:11:02;;;;;;;5.40;4.40;;;;;;;17.53;100.00;98597.91;108579;1251;61552;-62
2023/06/30 04:13:30;;;;;;;4.90;4.40;;;;;;;17.63;100.00;98610.30;108494;1252;59691;-62
2023/06/30 04:15:58;;;;;;;6.50;4.40;;;;;;;17.69;100.00;98613.84;108558;1251;73597;-63
2023/06/30 04:18:27;;;;;;;4.90;4.20;;;;;;;17.80;100.00;98614.13;108526;1251;69081;-66
2023/06/30 04:20:54;;;;;;;4.70;4.10;;;;;;;17.85;100.00;98616.85;108525;1254;72942;-63
2023/06/30 04:23:22;;;;;;;5.00;4.40;;;;;;;17.85;100.00;98616.85;108530;1251;61456;-64
2023/06/30 04:25:50;;;;;;;4.60;4.20;;;;;;;17.89;100.00;98620.95;108417;1251;59681;-63
2023/06/30 04:28:18;;;;;;;4.60;4.20;;;;;;;17.95;100.00;98619.92;108449;1251;73671;-63
2023/06/30 04:30:46;;;;;;;;;;;;;;;17.97;100.00;98619.17;108481;1251;69754;-62
2023/06/30 04:33:14;;;;;;;7.00;4.50;;;;;;;17.98;100.00;98619.23;108469;1253;72285;-65
2023/06/30 04:35:44;;;;;;;5.30;4.30;;;;;;;18.02;100.00;98618.01;108480;1251;61379;-63
2023/06/30 04:38:12;;;;;;;5.00;4.50;;;;;;;18.11;100.00;98618.07;108497;1251;58748;-63
2023/06/30 04:40:39;;;;;;;4.70;4.30;;;;;;;18.16;100.00;98615.33;108624;1251;73781;-60
2023/06/30 04:43:12;;;;;;;;;;;;;;;18.28;100.00;98614.78;108609;1255;69038;-63
2023/06/30 04:45:40;;;;;;;7.10;4.50;;;;;;;18.37;100.00;98616.27;108516;1251;72700;-62
2023/06/30 04:48:07;;;;;;;5.40;4.30;;;;;;;18.48;100.00;98611.21;108519;1256;61843;-62
2023/06/30 04:50:35;;;;;;;4.80;4.40;;;;;;;18.59;100.00;98611.38;108579;1254;60674;-63
2023/06/30 04:53:03;;;;;;;;;;;;;;;18.70;100.00;98615.34;108495;1251;73581;-64
2023/06/30 04:55:31;;;;;;;5.70;4.30;;;;;;;18.76;100.00;98616.63;108570;1252;69113;-62
2023/06/30 04:57:58;;;;;;;5.10;4.60;;;;;;;18.81;100.00;98616.90;108494;1251;72279;-64
2023/06/30 05:00:26;;;;;;;5.00;4.00;;;;;;;18.93;100.00;98612.91;108606;1253;60878;-62
2023/06/30 05:02:56;;;;;;;;;;;;;;;19.00;100.00;98613.86;108639;1251;59889;-64
2023/06/30 05:05:24;;;;;;;5.70;3.90;;;;;;;19.00;100.00;98612.04;108620;1251;73673;-64
2023/06/30 05:07:51;;;;;;;5.20;4.70;;;;;;;19.11;100.00;98610.56;108568;1256;68276;-63
2023/06/30 05:10:19;;;;;;;4.80;4.40;;;;;;;19.20;100.00;98608.40;108570;1251;73333;-64
2023/06/30 05:12:48;;;;;;;;;;;;;;;19.26;100.00;98613.18;108631;1251;61470;-64
2023/06/30 05:15:16;;;;;;;5.00;4.60;;;;;;;19.35;100.00;98623.36;108600;1251;59504;-64
2023/06/30 05:17:44;;;;;;;6.80;4.40;;;;;;;19.42;100.00;98622.63;108508;1251;73708;-63
2023/06/30 05:20:12;;;;;;;6.40;4.20;;;;;;;19.51;100.00;98624.50;108598;1252;69023;-63
2023/06/30 05:22:39;;;;;;;5.70;4.10;;;;;;;19.58;100.00;98629.84;108514;1251;72745;-66
2023/06/30 05:25:07;;;;;;;4.60;4.30;;;;;;;19.69;100.00;98627.92;108507;1251;61469;-67
2023/06/30 05:27:35;;;;;;;4.50;4.10;;;;;;;19.75;100.00;98625.00;108494;1251;59267;-67
2023/06/30 05:30:04;;;;;;;5.30;4.70;;;;;;;19.87;100.00;98625.86;108472;1251;74262;-65
2023/06/30 05:32:31;;;;;;;4.70;4.30;;;;;;;19.91;100.00;98615.36;108510;1251;69110;-66
2023/06/30 05:34:59;;;;;;;;;;;;;;;19.92;100.00;98619.47;108491;1252;72632;-65
2023/06/30 05:37:27;;;;;;;;;;;;;;;19.92;100.00;98619.09;108470;1254;61639;-63
2023/06/30 05:39:54;;;;;;;5.30;4.80;;;;;;;19.94;100.00;98619.33;108516;1251;59427;-66
2023/06/30 05:42:22;;;;;;;5.80;4.60;;;;;;;19.97;100.00;98615.49;108582;1251;73658;-65
2023/06/30 05:44:50;;;;;;;;;;;;;;;20.02;100.00;98617.26;108638;1251;69189;-65
2023/06/30 05:47:18;;;;;;;4.80;4.10;;;;;;;20.06;100.00;98622.73;108620;1251;73338;-65
2023/06/30 05:49:46;;;;;;;7.00;4.40;;;;;;;20.11;100.00;98621.75;108535;1253;62518;-65
2023/06/30 05:52:14;;;;;;;5.20;3.90;;;;;;;20.18;100.00;98624.09;108504;1251;60049;-66
2023/06/30 05:54:42;;;;;;;5.20;4.60;;;;;;;20.23;100.00;98625.13;108490;1251;73552;-65
2023/06/30 05:57:09;;;;;;;;;;;;;;;20.27;100.00;98620.16;108525;1251;70084;-65
2023/06/30 05:59:37;;;;;;;7.10;4.30;;;;;;;20.32;100.00;98619.48;108468;1251;72448;-65
2023/06/30 06:02:05;;;;;;;5.30;4.50;;;;;;;20.33;100.00;98614.17;108569;1251;60910;-65
2023/06/30 06:04:32;;;;;;;5.00;4.50;;;;;;;20.33;100.00;98610.78;108607;1251;59700;-65
2023/06/30 06:07:03;;;;;;;4.60;4.20;;;;;;;20.32;100.00;98608.46;108617;1256;72448;-65
2023/06/30 06:09:31;;;;;;;4.80;4.30;;;;;;;20.38;100.00;98609.77;108589;1251;69565;-65
2023/06/30 06:12:01;;;;;;;4.80;4.30;;;;;;;20.39;100.00;98613.37;108642;1251;72315;-65
2023/06/30 06:14:29;;;;;;;6.70;4.40;;;;;;;20.35;100.00;98616.30;108636;1251;61490;-65
2023/06/30 06:16:56;;;;;;;7.20;4.90;;;;;;;20.33;100.00;98614.95;108617;1251;59691;-65
2023/06/30 06:19:24;;;;;;;4.80;4.40;;;;;;;20.23;100.00;98611.42;108601;1251;74507;-64
2023/06/30 06:21:52;;;;;;;5.30;4.50;;;;;;;20.18;100.00;98615.33;108610;1251;70182;-64
2023/06/30 06:24:19;;;;;;;4.40;4.10;;;;;;;20.20;100.00;98612.27;108587;1251;72460;-65
2023/06/30 06:26:47;;;;;;;4.60;4.20;;;;;;;20.31;100.00;98606.92;108471;1251;61405;-65
2023/06/30 06:29:21;;;;;;;5.80;4.70;;;;;;;20.47;100.00;98607.63;108471;1251;62087;-65
2023/06/30 06:31:49;;;;;;;5.30;4.80;;;;;;;20.68;100.00;98605.08;108437;1252;76413;-64
2023/06/30 06:34:18;;;;;;;5.10;4.30;;;;;;;20.89;100.00;98597.73;108398;1252;69483;-64
2023/06/30 06:36:46;;;;;;;5.80;4.80;;;;;;;21.09;100.00;98596.77;108447;1252;72728;-66
2023/06/30 06:39:18;;;;;;;5.00;4.60;;;;;;;21.24;100.00;98590.11;108213;1253;61489;-66
2023/06/30 06:41:46;;;;;;;4.50;4.10;;;;;;;21.37;100.00;98590.34;108573;1252;60192;-64
2023/06/30 06:44:16;;;;;;;4.80;4.40;;;;;;;21.42;100.00;98589.31;108349;1252;74507;-65
2023/06/30 06:46:44;;;;;;;;;;;;;;;21.54;100.00;98592.45;108577;1252;69218;-64
2023/06/30 06:49:12;;;;;;;5.10;4.40;;;;;;;21.67;100.00;98589.65;108530;1252;72886;-65
2023/06/30 06:51:39;;;;;;;7.20;4.70;;;;;;;21.73;100.00;98589.38;108536;1253;61686;-65
2023/06/30 06:54:07;;;;;;;6.00;5.00;;;;;;;21.86;100.00;98588.23;108587;1252;60101;-64
2023/06/30 06:56:35;;;;;;;5.10;4.60;;;;;;;22.03;100.00;98588.23;108587;1252;74563;-64
2023/06/30 06:59:02;;;;;;;4.60;4.20;;;;;;;22.12;100.00;98594.77;108537;1252;69436;-65
2023/06/30 07:01:30;;;;;;;4.80;4.40;;;;;;;22.31;100.00;98590.40;108497;1254;72337;-64
2023/06/30 07:03:58;;;;;;;5.00;4.50;;;;;;;22.48;100.00;98590.15;108468;1254;61568;-63
2023/06/30 07:06:26;;;;;;;;;;;;;;;22.58;100.00;98585.89;108522;1253;59853;-66
2023/06/30 07:08:53;;;;;;;4.80;4.40;;;;;;;22.61;100.00;98588.80;108525;1253;74045;-64
2023/06/30 07:11:21;;;;;;;5.00;4.60;;;;;;;22.64;100.00;98585.26;108437;1252;69474;-65
2023/06/30 07:13:49;;;;;;;;;;;;;;;22.76;100.00;98584.80;108504;1253;73450;-65
2023/06/30 07:16:17;;;;;;;;;;;;;;;22.82;100.00;98587.45;108522;1254;61521;-66
2023/06/30 07:18:46;;;;;;;4.90;4.40;;;;;;;22.85;100.00;98581.77;108518;1254;59453;-67
2023/06/30 07:21:13;;;;;;;5.30;4.70;;;;;;;22.94;100.00;98581.92;108522;1253;73575;-66
2023/06/30 07:23:41;;;;;;;5.90;5.20;;;;;;;23.02;100.00;98580.14;108478;1252;68340;-66
2023/06/30 07:26:09;;;;;;;;;;;;;;;23.08;100.00;98580.30;108481;1256;72528;-65
2023/06/30 07:28:37;;;;;;;5.40;4.60;;;;;;;23.16;100.00;98583.76;108422;1254;61403;-64
2023/06/30 07:31:05;;;;;;;5.10;4.40;;;;;;;23.21;100.00;98583.73;108375;1254;59814;-64
2023/06/30 07:33:32;;;;;;;6.30;4.90;;;;;;;23.23;100.00;98582.77;108482;1251;73681;-64
2023/06/30 07:36:00;;;;;;;5.50;4.50;;;;;;;23.28;100.00;98584.73;108452;1251;69583;-64
2023/06/30 07:38:28;;;;;;;4.70;4.30;;;;;;;23.35;100.00;98585.64;108500;1251;72052;-63
2023/06/30 07:40:56;;;;;;;;;;;;;;;23.33;100.00;98588.48;108529;1252;60543;-64
2023/06/30 07:43:25;;;;;;;5.10;4.70;;;;;;;23.36;100.00;98585.80;108610;1251;59623;-65
2023/06/30 07:45:53;;;;;;;5.60;4.50;;;;;;;23.35;100.00;98589.19;108554;1251;72766;-63
2023/06/30 07:48:21;;;;;;;9.80;5.40;;;;;;;23.46;100.00;98588.20;108590;1251;69136;-63
2023/06/30 07:50:49;;;;;;;5.60;4.70;;;;;;;23.52;100.00;98588.31;108621;1256;73258;-64
2023/06/30 07:53:35;;;;;;;4.70;4.30;;;;;;;23.52;100.00;98586.84;108585;1251;61767;-63
2023/06/30 07:56:03;;;;;;;5.00;3.90;;;;;;;23.53;100.00;98586.39;108542;1251;59812;-64
2023/06/30 07:58:31;;;;;;;;;;;;;;;23.60;100.00;98579.13;108457;1251;73580;-65
2023/06/30 08:00:58;;;;;;;5.60;5.10;;;;;;;23.62;100.00;98577.00;108562;1251;69167;-63
2023/06/30 08:03:26;;;;;;;5.10;4.60;;;;;;;23.69;100.00;98575.27;108475;1252;71945;-64
2023/06/30 08:05:55;;;;;;;7.20;5.00;;;;;;;23.78;100.00;98575.89;108453;1251;61493;-63
2023/06/30 08:08:23;;;;;;;9.00;4.50;;;;;;;23.87;100.00;98574.81;108520;1251;59761;-63
2023/06/30 08:10:51;;;;;;;5.60;5.10;;;;;;;23.93;100.00;98565.19;108638;1251;74014;-63
2023/06/30 08:13:19;;;;;;;9.40;4.20;;;;;;;24.03;100.00;98573.74;108582;1253;68067;-63
2023/06/30 08:15:46;;;;;;;4.90;4.30;;;;;;;24.11;100.00;98575.00;108553;1251;72324;-63
2023/06/30 08:18:16;;;;;;;7.10;4.50;;;;;;;24.25;100.00;98571.71;108608;1251;61397;-65
2023/06/30 08:21:01;;;;;;;5.00;4.20;;;;;;;24.43;100.00;98570.73;108614;1251;59698;-64
2023/06/30 08:23:28;;;;;;;5.10;4.70;;;;;;;24.50;100.00;98570.58;108593;1251;73698;-65
2023/06/30 08:29:41;;;;;;;4.90;3.90;;;;;;;24.63;100.00;98561.04;101038;1293;615511;-63
2023/06/30 08:32:09;;;;;;;6.10;4.20;;;;;;;24.73;100.00;98567.73;103943;1266;59750;-64
2023/06/30 08:34:36;;;;;;;4.70;4.30;;;;;;;24.85;100.00;98560.94;103862;1266;59957;-64
2023/06/30 08:37:03;;;;;;;5.90;4.20;;;;;;;24.81;100.00;98561.34;103796;1279;72285;-63
2023/06/30 08:39:32;;;;;;;8.50;4.80;;;;;;;24.84;100.00;98558.89;103786;1265;68948;-61
2023/06/30 08:42:00;;;;;;;8.20;4.90;;;;;;;24.92;100.00;98562.08;103747;1263;199618;-63
2023/06/30 08:47:32;;;;;;;4.30;4.00;;;;;;;24.65;100.00;98558.91;101329;1294;601624;-61
2023/06/30 08:50:00;;;;;;;4.70;4.30;;;;;;;24.91;100.00;98549.84;103516;1267;59817;-63
2023/06/30 08:52:28;;;;;;;5.70;4.70;;;;;;;24.95;100.00;98552.71;103458;1271;60083;-62
2023/06/30 08:54:56;;;;;;;5.30;4.20;;;;;;;25.02;100.00;98558.37;103483;1271;71894;-62
2023/06/30 08:57:25;;;;;;;4.90;4.50;;;;;;;25.14;100.00;98555.24;103429;1284;69738;-64
2023/06/30 08:59:52;;;;;;;4.90;4.50;;;;;;;25.29;100.00;98563.56;103385;1269;72501;-64
2023/06/30 09:02:21;;;;;;;;;;;;;;;25.34;100.00;98563.98;103718;1268;210730;-63
2023/06/30 09:04:49;;;;;;;5.70;4.30;;;;;;;25.36;100.00;98557.54;103787;1265;60451;-63
2023/06/30 09:07:23;;;;;;;;;;;;;;;25.44;100.00;98562.98;103884;1278;71274;-62
2023/06/30 09:09:54;;;;;;;6.90;4.70;;;;;;;25.53;100.00;98554.94;103820;1265;69161;-62
2023/06/30 09:12:22;;;;;;;5.00;4.50;;;;;;;25.61;100.00;98557.65;103839;1268;72413;-62
2023/06/30 09:14:51;;;;;;;6.20;4.30;;;;;;;25.71;100.00;98560.41;103704;1264;59859;-63
2023/06/30 09:17:18;;;;;;;5.90;4.20;;;;;;;25.78;100.00;98562.73;103838;1265;59825;-63
2023/06/30 09:19:46;;;;;;;;;;;;;;;25.80;100.00;98555.50;103861;1268;73302;-64
2023/06/30 09:22:14;;;;;;;5.10;4.60;;;;;;;25.77;100.00;98559.58;103519;1263;69047;-63
2023/06/30 09:25:03;;;;;;;4.60;4.20;;;;;;;25.83;100.00;98555.16;103878;1263;72361;-63
2023/06/30 09:27:33;;;;;;;5.60;4.50;;;;;;;25.96;100.00;98561.80;104175;1263;60806;-64
2023/06/30 09:30:02;;;;;;;6.80;4.40;;;;;;;26.11;100.00;98559.39;106903;1262;59946;-65
2023/06/30 09:32:31;;;;;;;4.50;4.10;;;;;;;26.20;100.00;98553.25;104326;1263;71977;-63
2023/06/30 09:35:08;;;;;;;4.30;4.00;;;;;;;26.22;100.00;98562.75;104129;1265;70944;-61
2023/06/30 09:37:43;;;;;;;4.40;4.10;;;;;;;26.17;100.00;98558.83;104271;1263;72425;-62
2023/06/30 09:40:12;;;;;;;4.60;4.30;;;;;;;26.11;100.00;98556.52;103933;1268;59801;-61
2023/06/30 09:42:44;;;;;;;5.60;4.20;;;;;;;25.96;100.00;98568.25;103796;1265;59957;-62
2023/06/30 09:45:14;;;;;;;5.00;4.50;;;;;;;25.77;100.00;98556.59;103790;1268;73732;-63
2023/06/30 09:47:42;;;;;;;8.00;4.30;;;;;;;25.91;100.00;98550.61;103809;1267;69292;-63
2023/06/30 09:50:10;;;;;;;4.90;4.40;;;;;;;26.01;100.00;98552.41;103849;1268;72464;-63
2023/06/30 09:52:38;;;;;;;7.60;4.40;;;;;;;25.99;100.00;98552.52;103857;1268;60310;-62
2023/06/30 09:55:10;;;;;;;4.50;4.20;;;;;;;26.02;100.00;98548.82;103851;1268;59668;-62
2023/06/30 09:57:41;;;;;;;5.20;4.90;;;;;;;26.10;100.00;98540.48;104125;1256;72886;-62
2023/06/30 10:00:13;;;;;;;4.10;3.80;;;;;;;26.19;100.00;98546.58;107682;1256;69348;-62
2023/06/30 21:04:28;;;;;;;3.60;3.30;;;;;;;19.68;100.00;98660.66;101477;1296;601333;-62
2023/06/30 21:06:57;;;;;;;4.00;3.40;;;;;;;20.00;100.00;98657.29;103740;1270;61386;-63
2023/06/30 21:09:24;;;;;;;5.10;3.80;;;;;;;20.00;100.00;98656.55;103630;1283;59468;-61
2023/06/30 21:11:52;;;;;;;4.80;3.70;;;;;;;20.06;100.00;98654.94;104083;1267;71871;-64
2023/06/30 21:14:20;;;;;;;4.50;3.90;;;;;;;20.08;100.00;98656.16;103910;1264;69290;-63
2023/06/30 21:16:48;;;;;;;4.70;3.70;;;;;;;20.06;100.00;98655.86;104011;1276;71535;-63
2023/06/30 21:19:16;;;;;;;;;;;;;;;20.01;100.00;98652.35;104130;1258;171067;-63
2023/06/30 21:21:43;;;;;;;3.80;3.50;;;;;;;19.99;100.00;98650.41;104118;1264;59519;-63
2023/06/30 21:24:11;;;;;;;5.90;4.00;;;;;;;19.99;100.00;98650.49;104271;1260;72567;-62
2023/06/30 21:26:39;;;;;;;4.30;3.90;;;;;;;19.99;100.00;98655.27;104208;1269;69878;-63
2023/06/30 21:29:11;;;;;;;7.10;4.20;;;;;;;19.99;100.00;98652.99;104283;1258;72413;-63
2023/06/30 21:31:39;;;;;;;4.40;3.50;;;;;;;19.96;100.00;98648.93;104314;1257;61409;-62
2023/06/30 21:34:08;;;;;;;5.50;3.40;;;;;;;19.92;100.00;98650.95;104346;1259;60673;-63
2023/06/30 21:36:36;;;;;;;;;;;;;;;19.91;100.00;98655.67;104306;1266;73674;-62
2023/06/30 21:39:06;;;;;;;5.50;4.10;;;;;;;19.92;100.00;98657.35;105670;1256;69481;-61
2023/06/30 21:41:35;;;;;;;5.20;3.90;;;;;;;19.94;100.00;98660.40;104299;1272;72394;-62
2023/06/30 21:44:04;;;;;;;5.00;4.20;;;;;;;19.97;100.00;98662.02;104519;1257;61387;-62
2023/06/30 21:46:32;;;;;;;8.30;4.00;;;;;;;19.96;100.00;98660.92;104591;1260;59717;-62
2023/06/30 21:49:00;;;;;;;;;;;;;;;19.97;100.00;98656.39;104777;1258;73227;-63
2023/06/30 21:51:27;;;;;;;;;;;;;;;19.95;100.00;98656.89;104341;1263;70097;-64
2023/06/30 21:54:02;;;;;;;5.40;4.30;;;;;;;19.94;100.00;98657.31;104312;1260;73351;-62
2023/06/30 21:56:31;;;;;;;5.20;4.70;;;;;;;19.96;100.00;98659.98;104131;1258;61583;-61
2023/06/30 21:58:58;;;;;;;4.70;4.10;;;;;;;19.95;100.00;98667.59;104158;1256;60855;-62
2023/06/30 22:01:26;;;;;;;5.90;4.70;;;;;;;19.95;100.00;98668.07;104278;1257;71887;-62
2023/06/30 22:04:07;;;;;;;5.50;4.20;;;;;;;19.99;100.00;98669.67;104258;1273;69883;-63
2023/06/30 22:06:35;;;;;;;4.50;4.10;;;;;;;20.00;100.00;98668.91;104358;1261;72406;-62
2023/06/30 22:09:02;;;;;;;;;;;;;;;20.02;100.00;98667.88;104359;1261;60979;-62
2023/06/30 22:11:43;;;;;;;4.20;3.90;;;;;;;20.04;100.00;98666.83;104266;1258;59708;-62
2023/06/30 22:14:14;;;;;;;4.60;4.20;;;;;;;20.10;100.00;98665.39;104267;1258;72746;-64
2023/06/30 22:16:41;;;;;;;7.50;4.60;;;;;;;20.13;100.00;98667.25;104485;1260;70022;-63
2023/06/30 22:19:09;;;;;;;5.30;4.80;;;;;;;20.15;100.00;98665.23;104903;1251;72436;-63
2023/06/30 22:21:37;;;;;;;5.90;4.30;;;;;;;20.12;100.00;98660.34;108383;1251;61407;-63
2023/06/30 22:24:05;;;;;;;;;;;;;;;20.13;100.00;98660.78;104579;1257;60292;-63
2023/06/30 22:26:32;;;;;;;;;;;;;;;20.05;100.00;98665.13;104587;1254;72965;-62
2023/06/30 22:29:00;;;;;;;4.70;4.10;;;;;;;20.01;100.00;98660.70;104635;1254;70226;-63
2023/06/30 22:31:28;;;;;;;4.90;4.20;;;;;;;20.01;100.00;98664.15;104337;1256;72937;-61
2023/06/30 22:33:55;;;;;;;4.40;4.00;;;;;;;20.04;100.00;98666.31;104395;1256;61749;-63
2023/06/30 22:36:23;;;;;;;7.80;4.60;;;;;;;20.02;100.00;98663.30;104577;1252;60101;-62
2023/06/30 22:38:51;;;;;;;5.30;4.20;;;;;;;19.97;100.00;98661.89;104356;1252;72861;-63